Boothville, LA

5:01 PM CDT on August 20, 2017 (GMT -0500)
Boothville

Weather History for KBVE - February, 2013

Change the Weather History Date:

Friday, February 8, 2013

  Actual Average (KAXO) Record (KAXO)
Temperature  
Mean Temperature 60 °F -  
Max Temperature 68 °F 59 °F 69 °F (1999)
Min Temperature 53 °F 55 °F 42 °F (2002)
Degree Days  
Heating Degree Days 4    
Growing Degree Days 10 (Base 50)    
Moisture  
Dew Point 57 °F    
Average Humidity 96    
Maximum Humidity 100    
Minimum Humidity 78    
Precipitation  
Precipitation 0.00 in - - ()
Sea Level Pressure  
Sea Level Pressure 30.06 in    
Wind  
Wind Speed 2 mph (NW)    
Max Wind Speed 9 mph    
Max Gust Speed -    
Visibility 3 miles    
Events Fog    
Averages and records for this station are not official NWS values.
T = Trace of Precipitation, MM = Missing Value Source: NWS Daily Summary

Daily Weather History Graph

Daily Weather History Graph

Search for Another Location

Airport or City:

Trip Planner

Search our weather history database for the weather conditions in past years. The results will help you decide how hot, cold, wet, or windy it might be!

Date:

Astronomy

Feb. 08, 2013 Rise Set
Actual Time 6:42 AM CST 5:41 PM CST
Civil Twilight 6:17 AM CST 6:06 PM CST
Nautical Twilight 5:49 AM CST 6:34 PM CST
Astronomical Twilight 5:21 AM CST 7:02 PM CST
Moon 5:06 AM CST (2/8) 4:17 PM CST (2/8)
Length of Visible Light 11h 48m
Length of Day
10h 59m
Waning Crescent, 3% of the Moon is Illuminated
Feb 8
Waning Crescent
Feb 10
New
Feb 17
First Quarter
Feb 25
Full
Mar 4
Last Quarter

Hourly Weather History & Observations

Time (CST) Temp. Dew Point Humidity Pressure Visibility Wind Dir Wind Speed Gust Speed Precip Events Conditions
12:13 AM 55.4 °F 55.4 °F 100% 29.97 in 3.0 mi Calm Calm - N/A   Clear
12:18 AM 55.4 °F 55.4 °F 100% 29.97 in 1.8 mi Calm Calm - N/A   Clear
12:37 AM 55.4 °F 53.6 °F 94% 29.97 in 1.0 mi Calm Calm - N/A   Mist
12:51 AM 55.0 °F 54.0 °F 96% 29.97 in 2.5 mi Calm Calm - N/A   Partly Cloudy
1:09 AM 55.4 °F 55.4 °F 100% 29.97 in 1.2 mi Calm Calm - N/A   Clear
1:14 AM 53.6 °F 53.6 °F 100% 29.97 in 3.0 mi WNW 3.5 mph - N/A   Clear
1:51 AM 55.0 °F 55.0 °F 100% 29.97 in 3.0 mi NW 3.5 mph - N/A   Clear
2:51 AM 55.9 °F 55.9 °F 100% 29.98 in 4.0 mi Calm Calm - N/A   Clear
2:58 AM 55.4 °F 55.4 °F 100% 29.98 in 1.8 mi Calm Calm - N/A   Clear
3:07 AM 55.4 °F 55.4 °F 100% 29.98 in 0.5 mi Calm Calm - N/A Fog Fog
3:15 AM 55.4 °F 55.4 °F 100% 29.98 in 0.2 mi Calm Calm - N/A Fog Fog
3:28 AM 53.6 °F 53.6 °F 100% 29.99 in 0.5 mi Calm Calm - N/A Fog Fog
3:38 AM 53.6 °F 53.6 °F 100% 29.99 in 0.5 mi WNW 3.5 mph - N/A Fog Fog
3:41 AM 53.6 °F 53.6 °F 100% 29.99 in 0.2 mi WNW 3.5 mph - N/A Fog Fog
3:51 AM 55.9 °F 55.0 °F 97% 29.99 in 0.2 mi Calm Calm - N/A Fog Fog
3:59 AM 55.4 °F 55.4 °F 100% 29.99 in 0.2 mi Calm Calm - N/A Fog Fog
4:51 AM 55.0 °F 55.0 °F 100% 30.01 in 0.2 mi Calm Calm - N/A Fog Fog
5:11 AM 55.4 °F 55.4 °F 100% 30.01 in 0.5 mi Calm Calm - N/A Fog Fog
5:26 AM 55.4 °F 53.6 °F 94% 30.01 in 0.2 mi Calm Calm - N/A Fog Fog
5:34 AM 55.4 °F 53.6 °F 94% 30.02 in 0.5 mi WNW 4.6 mph - N/A Fog Fog
5:44 AM 55.4 °F 55.4 °F 100% 30.02 in 0.2 mi Calm Calm - N/A Fog Fog
5:51 AM 55.0 °F 55.0 °F 100% 30.02 in 0.2 mi Calm Calm - N/A Fog Fog
6:30 AM 53.6 °F 53.6 °F 100% 30.04 in 0.2 mi WNW 3.5 mph - N/A Fog Fog
6:37 AM 55.4 °F 55.4 °F 100% 30.04 in 0.5 mi WNW 3.5 mph - N/A Fog Fog
6:46 AM 55.4 °F 55.4 °F 100% 30.05 in 0.2 mi WNW 3.5 mph - N/A Fog Fog
6:51 AM 55.0 °F 55.0 °F 100% 30.05 in 0.2 mi West 3.5 mph - N/A Fog Fog
7:07 AM 55.4 °F 55.4 °F 100% 30.05 in 0.5 mi WNW 3.5 mph - N/A Fog Fog
7:24 AM 57.2 °F 57.2 °F 100% 30.06 in 1.0 mi NW 4.6 mph - N/A   Clear
7:51 AM 60.1 °F 60.1 °F 100% 30.06 in 1.8 mi Calm Calm - N/A   Clear
8:02 AM 60.8 °F 60.8 °F 100% 30.06 in 2.0 mi Calm Calm - N/A   Clear
8:51 AM 64.0 °F 63.0 °F 96% 30.08 in 3.0 mi Calm Calm - N/A   Clear
9:51 AM 66.0 °F 60.1 °F 81% 30.10 in 8.0 mi NNW 4.6 mph - N/A   Overcast
10:51 AM 68.0 °F 61.0 °F 78% 30.11 in 9.0 mi NNW 5.8 mph - N/A   Overcast
11:24 AM 68.0 °F 60.8 °F 78% 30.10 in 9.0 mi NW 4.6 mph - N/A   Overcast
11:51 AM 66.9 °F 61.0 °F 81% 30.10 in 10.0 mi NNW 5.8 mph - N/A   Overcast
12:51 PM 66.9 °F 62.1 °F 84% 30.08 in 7.0 mi SW 6.9 mph - N/A   Overcast
1:21 PM 66.2 °F 60.8 °F 83% 30.08 in 7.0 mi WSW 4.6 mph - N/A   Overcast
1:36 PM 68.0 °F 62.6 °F 83% 30.07 in 7.0 mi SW 5.8 mph - N/A   Overcast
1:51 PM 68.0 °F 63.0 °F 84% 30.07 in 7.0 mi SW 5.8 mph - N/A   Overcast
2:06 PM 66.2 °F 62.6 °F 88% 30.07 in 8.0 mi SW 4.6 mph - N/A   Overcast
2:13 PM 68.0 °F 62.6 °F 83% 30.07 in 8.0 mi WSW 4.6 mph - N/A   Overcast
2:51 PM 66.9 °F 62.1 °F 84% 30.06 in 8.0 mi SW 4.6 mph - N/A   Overcast
3:51 PM 66.9 °F 61.0 °F 81% 30.07 in 7.0 mi North 3.5 mph - N/A   Overcast
4:38 PM 66.2 °F 60.8 °F 83% 30.08 in 6.0 mi Variable 4.6 mph - N/A   Haze
4:51 PM 64.9 °F 61.0 °F 87% 30.08 in 6.0 mi North 3.5 mph - N/A   Mostly Cloudy
5:51 PM 61.0 °F 60.1 °F 97% 30.08 in 3.0 mi Calm Calm - N/A   Clear
6:23 PM 59.0 °F 59.0 °F 100% 30.09 in 2.0 mi Calm Calm - N/A   Clear
6:51 PM 59.0 °F 57.9 °F 96% 30.09 in 1.8 mi Calm Calm - N/A   Clear
7:08 PM 57.2 °F 57.2 °F 100% 30.09 in 0.8 mi SSE 3.5 mph - N/A   Clear
7:16 PM 57.2 °F 57.2 °F 100% 30.10 in 1.8 mi Calm Calm - N/A   Clear
7:23 PM 57.2 °F 57.2 °F 100% 30.10 in 2.0 mi Calm Calm - N/A   Clear
7:31 PM 57.2 °F 57.2 °F 100% 30.10 in 1.8 mi Calm Calm - N/A   Clear
7:51 PM 55.9 °F 55.9 °F 100% 30.12 in 1.5 mi Calm Calm - N/A   Clear
8:03 PM 57.2 °F 57.2 °F 100% 30.12 in 2.0 mi Calm Calm - N/A   Clear
8:12 PM 57.2 °F 57.2 °F 100% 30.12 in 1.8 mi Calm Calm - N/A   Clear
8:19 PM 55.4 °F 55.4 °F 100% 30.12 in 2.0 mi Calm Calm - N/A   Clear
8:42 PM 57.2 °F 55.4 °F 94% 30.13 in 1.5 mi NW 3.5 mph - N/A   Clear
8:48 PM 57.2 °F 57.2 °F 100% 30.13 in 0.5 mi NW 3.5 mph - N/A Fog Fog
8:51 PM 55.9 °F 55.9 °F 100% 30.13 in 0.2 mi NW 3.5 mph - N/A Fog Fog
9:06 PM 57.2 °F 57.2 °F 100% 30.13 in 1.0 mi NW 3.5 mph - N/A   Mist
9:19 PM 57.2 °F 57.2 °F 100% 30.13 in 0.8 mi NW 3.5 mph - N/A   Clear
9:37 PM 57.2 °F 57.2 °F 100% 30.13 in 1.2 mi NW 3.5 mph - N/A   Clear
9:42 PM 57.2 °F 57.2 °F 100% 30.13 in 0.8 mi NW 3.5 mph - N/A   Mist
9:51 PM 57.0 °F 57.0 °F 100% 30.14 in 0.8 mi NW 3.5 mph - N/A   Mist
9:59 PM 57.2 °F 57.2 °F 100% 30.14 in 0.8 mi NNW 3.5 mph - N/A   Mist
10:08 PM 57.2 °F 57.2 °F 100% 30.14 in 0.8 mi NNW 4.6 mph - N/A   Mist
10:12 PM 57.2 °F 57.2 °F 100% 30.13 in 1.5 mi North 3.5 mph - N/A   Partly Cloudy
10:15 PM 57.2 °F 57.2 °F 100% 30.13 in 3.0 mi North 3.5 mph - N/A   Partly Cloudy
10:51 PM 57.9 °F 55.9 °F 93% 30.14 in 10.0 mi North 5.8 mph - N/A   Clear
11:33 PM 57.2 °F 55.4 °F 94% 30.14 in 10.0 mi NNE 9.2 mph - N/A   Mostly Cloudy
11:51 PM 57.9 °F 55.9 °F 93% 30.14 in 10.0 mi NNE 9.2 mph - N/A   Overcast